createdAt,value
2023-02-06T00:01:51.192Z,102873.59
2023-02-06T00:04:19.670Z,102873.69
2023-02-06T00:06:48.322Z,102876.07
2023-02-06T00:09:16.787Z,102872.58
2023-02-06T00:11:45.238Z,102873.41
2023-02-06T00:14:13.765Z,102882.08
2023-02-06T00:16:42.534Z,102884.09
2023-02-06T00:19:11.003Z,102875.30
2023-02-06T00:21:39.441Z,102867.84
2023-02-06T00:24:08.161Z,102866.83
2023-02-06T00:26:36.683Z,102860.73
2023-02-06T00:29:05.291Z,102864.23
2023-02-06T00:31:33.985Z,102867.20
2023-02-06T00:34:04.218Z,102865.26
2023-02-06T00:36:33.987Z,102867.59
2023-02-06T00:39:02.623Z,102870.48
2023-02-06T00:41:31.109Z,102867.56
2023-02-06T00:43:59.652Z,102864.15
2023-02-06T00:46:28.102Z,102860.75
2023-02-06T00:48:56.578Z,102864.89
2023-02-06T00:51:25.023Z,102874.38
2023-02-06T00:53:53.807Z,102869.04
2023-02-06T00:56:22.505Z,102867.11
2023-02-06T00:58:50.972Z,102868.19
2023-02-06T01:01:19.614Z,102867.30
2023-02-06T01:03:48.157Z,102867.33
2023-02-06T01:06:17.475Z,102864.45
2023-02-06T01:08:47.245Z,102862.60
2023-02-06T01:11:20.867Z,102865.00
2023-02-06T01:13:49.893Z,102868.05
2023-02-06T01:16:22.953Z,102861.77
2023-02-06T01:18:51.723Z,102856.27
2023-02-06T01:21:23.353Z,102860.58
2023-02-06T01:23:53.952Z,102863.40
2023-02-06T01:26:27.165Z,102861.77
2023-02-06T01:28:57.142Z,102866.38
2023-02-06T01:31:28.434Z,102859.84
2023-02-06T01:33:59.028Z,102865.63
2023-02-06T01:36:28.224Z,102867.96
2023-02-06T01:38:58.515Z,102867.27
2023-02-06T01:41:27.302Z,102862.80
2023-02-06T01:44:17.766Z,102862.14
2023-02-06T01:46:48.220Z,102865.29
2023-02-06T01:49:30.545Z,102861.20
2023-02-06T01:52:07.602Z,102861.38
2023-02-06T01:54:36.445Z,102857.61
2023-02-06T01:57:09.826Z,102857.69
2023-02-06T01:59:42.380Z,102849.71
2023-02-06T02:02:12.646Z,102851.19
2023-02-06T02:04:41.809Z,102849.86
2023-02-06T02:07:33.384Z,102848.94
2023-02-06T02:10:02.234Z,102848.71
2023-02-06T02:12:31.276Z,102848.23
2023-02-06T02:15:00.149Z,102841.81
2023-02-06T02:17:47.230Z,102832.77
2023-02-06T02:20:26.802Z,102834.60
2023-02-06T02:23:13.966Z,102834.05
2023-02-06T02:25:52.427Z,102824.58
2023-02-06T02:28:20.845Z,102815.48
2023-02-06T02:31:14.378Z,102813.15
2023-02-06T02:34:22.948Z,102806.52
2023-02-06T02:37:17.375Z,102797.23
2023-02-06T02:40:00.001Z,102793.51
2023-02-06T02:42:38.315Z,102795.89
2023-02-06T02:45:27.167Z,102799.12
2023-02-06T02:48:04.761Z,102799.95
2023-02-06T02:50:34.724Z,102796.33
2023-02-06T02:53:05.489Z,102791.21
2023-02-06T02:55:34.163Z,102782.90
2023-02-06T02:58:10.529Z,102777.67
2023-02-06T03:01:02.410Z,102773.93
2023-02-06T03:03:34.812Z,102770.11
2023-02-06T03:06:22.373Z,102768.98
2023-02-06T03:09:00.782Z,102771.54
2023-02-06T03:11:30.290Z,102768.80
2023-02-06T03:14:10.416Z,102759.88
2023-02-06T03:16:46.276Z,102763.29
2023-02-06T03:19:23.774Z,102761.39
2023-02-06T03:21:52.428Z,102760.10
2023-02-06T03:24:25.852Z,102763.48
2023-02-06T03:26:59.271Z,102768.83
2023-02-06T03:29:32.025Z,102769.58
2023-02-06T03:32:29.956Z,102772.89
2023-02-06T03:35:04.026Z,102774.30
2023-02-06T03:37:33.186Z,102770.32
2023-02-06T03:40:02.730Z,102767.94
2023-02-06T03:42:33.001Z,102766.94
2023-02-06T03:45:08.497Z,102764.38
2023-02-06T03:47:38.902Z,102761.46
2023-02-06T03:50:10.276Z,102765.35
2023-02-06T03:52:44.553Z,102767.52
2023-02-06T03:55:16.856Z,102768.86
2023-02-06T03:57:50.416Z,102766.05
2023-02-06T04:00:20.576Z,102763.70
2023-02-06T04:02:52.642Z,102762.36
2023-02-06T04:05:21.742Z,102758.66
2023-02-06T04:07:50.274Z,102757.48
2023-02-06T04:10:18.983Z,102753.85
2023-02-06T04:12:47.590Z,102759.96
2023-02-06T04:15:16.178Z,102761.08
2023-02-06T04:17:58.937Z,102767.01
2023-02-06T04:20:30.063Z,102769.81
2023-02-06T04:22:59.819Z,102768.93
2023-02-06T04:25:28.373Z,102769.98
2023-02-06T04:27:56.846Z,102774.31
2023-02-06T04:30:25.417Z,102779.95
2023-02-06T04:32:54.190Z,102778.87
2023-02-06T04:35:22.726Z,102780.61
2023-02-06T04:37:51.240Z,102777.13
2023-02-06T04:40:19.782Z,102774.08
2023-02-06T04:42:48.557Z,102774.95
2023-02-06T04:45:17.019Z,102771.51
2023-02-06T04:47:49.575Z,102772.04
2023-02-06T04:50:19.078Z,102773.45
2023-02-06T04:52:47.566Z,102766.55
2023-02-06T04:55:16.239Z,102757.06
2023-02-06T04:57:44.736Z,102752.08
2023-02-06T05:00:14.868Z,102759.53
2023-02-06T05:02:43.355Z,102766.86
2023-02-06T05:05:13.170Z,102764.37
2023-02-06T05:07:41.609Z,102762.58
2023-02-06T05:10:10.289Z,102762.95
2023-02-06T05:12:38.761Z,102759.95
2023-02-06T05:15:08.351Z,102758.67
2023-02-06T05:17:36.934Z,102755.90
2023-02-06T05:20:06.640Z,102763.20
2023-02-06T05:22:35.234Z,102760.63
2023-02-06T05:25:03.792Z,102758.35
2023-02-06T05:27:32.200Z,102756.27
2023-02-06T05:30:00.678Z,102758.08
2023-02-06T05:32:29.366Z,102757.80
2023-02-06T05:34:57.869Z,102756.48
2023-02-06T05:37:26.407Z,102754.91
2023-02-06T05:39:54.834Z,102756.23
2023-02-06T05:42:23.290Z,102757.48
2023-02-06T05:44:51.930Z,102759.84
2023-02-06T05:47:20.331Z,102760.70
2023-02-06T05:49:48.797Z,102753.19
2023-02-06T05:52:17.226Z,102750.88
2023-02-06T05:54:45.739Z,102753.00
2023-02-06T05:57:14.141Z,102752.19
2023-02-06T05:59:42.705Z,102754.13
2023-02-06T06:02:11.470Z,102756.14
2023-02-06T06:04:40.163Z,102759.70
2023-02-06T06:07:09.380Z,102756.10
2023-02-06T06:09:37.995Z,102764.86
2023-02-06T06:12:06.727Z,102778.08
2023-02-06T06:14:35.298Z,102782.60
2023-02-06T06:17:03.738Z,102789.60
2023-02-06T06:19:32.240Z,102785.77
2023-02-06T06:22:00.769Z,102797.11
2023-02-06T06:24:29.204Z,102801.98
2023-02-06T06:26:59.640Z,102801.17
2023-02-06T06:29:28.169Z,102798.05
2023-02-06T06:31:56.779Z,102799.44
2023-02-06T06:34:26.449Z,102812.13
2023-02-06T06:36:54.930Z,102816.46
2023-02-06T06:39:23.439Z,102809.23
2023-02-06T06:41:51.946Z,102809.30
2023-02-06T06:44:20.537Z,102811.27
2023-02-06T06:46:49.008Z,102815.09
2023-02-06T06:49:17.656Z,102818.27
2023-02-06T06:51:46.099Z,102812.50
2023-02-06T06:54:15.694Z,102813.52
2023-02-06T06:56:44.258Z,102817.67
2023-02-06T06:59:12.651Z,102831.81
2023-02-06T07:01:41.395Z,102831.73
2023-02-06T07:04:09.881Z,102831.64
2023-02-06T07:06:38.352Z,102832.45
2023-02-06T07:09:06.787Z,102831.91
2023-02-06T07:11:35.253Z,102837.48
2023-02-06T07:14:04.827Z,102837.58
2023-02-06T07:16:33.467Z,102836.04
2023-02-06T07:19:02.031Z,102837.13
2023-02-06T07:21:30.508Z,102835.58
2023-02-06T07:23:59.301Z,102837.71
2023-02-06T07:26:27.773Z,102843.95
2023-02-06T07:28:56.308Z,102843.29
2023-02-06T07:31:24.751Z,102840.61
2023-02-06T07:33:53.495Z,102847.91
2023-02-06T07:36:22.142Z,102857.61
2023-02-06T07:38:50.637Z,102862.71
2023-02-06T07:41:19.095Z,102868.55
2023-02-06T07:43:47.548Z,102870.66
2023-02-06T07:46:16.322Z,102871.13
2023-02-06T07:48:44.962Z,102869.39
2023-02-06T07:51:14.480Z,102872.23
2023-02-06T07:53:43.208Z,102872.16
2023-02-06T07:56:18.656Z,102874.56
2023-02-06T07:58:51.629Z,102870.86
2023-02-06T08:01:21.950Z,102866.56
2023-02-06T08:03:54.903Z,102864.31
2023-02-06T08:06:24.917Z,102859.27
2023-02-06T08:08:56.231Z,102853.95
2023-02-06T08:11:27.998Z,102852.93
2023-02-06T08:13:56.910Z,102845.70
2023-02-06T08:16:25.595Z,102846.23
2023-02-06T08:18:54.345Z,102850.92
2023-02-06T08:21:25.296Z,102850.16
2023-02-06T08:23:58.763Z,102845.19
2023-02-06T08:26:29.442Z,102845.41
2023-02-06T08:29:01.325Z,102844.70
2023-02-06T08:31:36.251Z,102842.19
2023-02-06T08:34:06.883Z,102836.93
2023-02-06T08:36:35.962Z,102837.18
2023-02-06T08:39:05.275Z,102835.94
2023-02-06T08:41:39.335Z,102840.68
2023-02-06T08:44:14.778Z,102844.79
2023-02-06T08:46:45.301Z,102840.55
2023-02-06T08:49:16.259Z,102839.57
2023-02-06T08:51:45.433Z,102839.48
2023-02-06T08:54:16.581Z,102845.77
2023-02-06T08:56:45.985Z,102847.55
2023-02-06T08:59:16.505Z,102853.20
2023-02-06T09:01:46.445Z,102857.73
2023-02-06T09:04:16.001Z,102857.86
2023-02-06T09:06:48.063Z,102858.95
2023-02-06T09:09:16.602Z,102860.95
2023-02-06T09:11:45.057Z,102859.08
2023-02-06T09:14:18.078Z,102863.59
2023-02-06T09:16:46.811Z,102862.31
2023-02-06T09:19:15.354Z,102858.48
2023-02-06T09:21:43.873Z,102851.11
2023-02-06T09:24:12.430Z,102857.00
2023-02-06T09:26:58.574Z,102856.71
2023-02-06T09:29:29.491Z,102846.39
2023-02-06T09:31:58.369Z,102842.94
2023-02-06T09:34:27.930Z,102839.73
2023-02-06T09:36:58.042Z,102841.95
2023-02-06T09:39:26.759Z,102838.27
2023-02-06T09:42:03.685Z,102846.01
2023-02-06T09:45:12.944Z,102859.23
2023-02-06T09:47:47.606Z,102862.38
2023-02-06T09:51:04.786Z,102859.38
2023-02-06T09:53:42.190Z,102860.38
2023-02-06T09:56:10.569Z,102858.88
2023-02-06T09:58:49.881Z,102860.52
2023-02-06T10:01:33.737Z,102864.10
2023-02-06T10:04:02.222Z,102869.44
2023-02-06T10:06:41.582Z,102867.16
2023-02-06T10:09:16.655Z,102872.83
2023-02-06T10:11:54.695Z,102876.59
2023-02-06T10:15:01.432Z,102879.42
2023-02-06T10:17:45.768Z,102871.97
2023-02-06T10:20:21.644Z,102863.55
2023-02-06T10:23:30.839Z,102850.46
2023-02-06T10:26:17.975Z,102852.10
2023-02-06T10:28:52.939Z,102846.40
2023-02-06T10:31:54.169Z,102844.89
2023-02-06T10:34:35.899Z,102844.93
2023-02-06T10:37:25.476Z,102842.19
2023-02-06T10:39:56.380Z,102834.54
2023-02-06T10:42:33.586Z,102836.09
2023-02-06T10:45:36.396Z,102835.09
2023-02-06T10:48:19.587Z,102837.33
2023-02-06T10:51:07.802Z,102830.98
2023-02-06T10:53:49.011Z,102827.69
2023-02-06T10:56:22.846Z,102835.77
2023-02-06T10:59:11.192Z,102828.81
2023-02-06T11:01:41.539Z,102834.14
2023-02-06T11:04:35.493Z,102834.77
2023-02-06T11:07:15.413Z,102825.73
2023-02-06T11:09:44.945Z,102829.71
2023-02-06T11:12:38.446Z,102827.73
2023-02-06T11:15:18.393Z,102821.29
2023-02-06T11:17:46.944Z,102822.95
2023-02-06T11:20:17.603Z,102821.71
2023-02-06T11:22:52.780Z,102820.11
2023-02-06T11:25:31.496Z,102823.41
2023-02-06T11:28:01.585Z,102824.45
2023-02-06T11:30:38.084Z,102831.38
2023-02-06T11:33:20.190Z,102830.64
2023-02-06T11:36:00.213Z,102834.61
2023-02-06T11:38:30.397Z,102830.06
2023-02-06T11:41:16.611Z,102840.15
2023-02-06T11:43:51.115Z,102850.60
2023-02-06T11:46:19.571Z,102859.35
2023-02-06T11:49:01.286Z,102859.34
2023-02-06T11:51:54.111Z,102854.38
2023-02-06T11:54:35.633Z,102855.63
2023-02-06T11:57:23.652Z,102856.00
2023-02-06T11:59:55.207Z,102854.81
2023-02-06T12:02:36.719Z,102849.06
2023-02-06T12:05:13.573Z,102847.05
2023-02-06T12:07:56.624Z,102845.14
2023-02-06T12:10:26.496Z,102842.23
2023-02-06T12:13:06.020Z,102834.92
2023-02-06T12:15:47.872Z,102833.61
2023-02-06T12:18:27.360Z,102828.09
2023-02-06T12:21:19.572Z,102826.51
2023-02-06T12:23:53.124Z,102827.58
2023-02-06T12:26:24.972Z,102823.20
2023-02-06T12:29:19.786Z,102818.37
2023-02-06T12:32:18.641Z,102813.05
2023-02-06T12:34:57.291Z,102814.91
2023-02-06T12:37:51.725Z,102807.66
2023-02-06T12:40:43.522Z,102806.17
2023-02-06T12:43:16.969Z,102806.63
2023-02-06T12:45:57.094Z,102805.20
2023-02-06T12:48:30.024Z,102801.23
2023-02-06T12:51:26.870Z,102802.60
2023-02-06T12:54:03.337Z,102799.48
2023-02-06T12:56:57.540Z,102792.17
2023-02-06T12:59:43.736Z,102786.05
2023-02-06T13:03:04.053Z,102796.31
2023-02-06T13:05:43.431Z,102799.56
2023-02-06T13:08:17.675Z,102794.80
2023-02-06T13:10:59.657Z,102795.40
2023-02-06T13:13:41.976Z,102796.20
2023-02-06T13:16:11.008Z,102791.91
2023-02-06T13:18:42.577Z,102794.92
2023-02-06T13:21:23.013Z,102800.55
2023-02-06T13:24:03.405Z,102802.33
2023-02-06T13:26:53.562Z,102805.96
2023-02-06T13:29:27.667Z,102810.34
2023-02-06T13:32:23.006Z,102810.77
2023-02-06T13:34:54.116Z,102815.58
2023-02-06T13:37:44.499Z,102813.67
2023-02-06T13:40:16.263Z,102817.40
2023-02-06T13:43:04.926Z,102818.27
2023-02-06T13:45:46.688Z,102819.47
2023-02-06T13:48:46.635Z,102822.02
2023-02-06T13:51:19.227Z,102822.67
2023-02-06T13:54:20.675Z,102819.14
2023-02-06T13:57:28.788Z,102816.21
2023-02-06T14:00:18.151Z,102820.71
2023-02-06T14:03:26.363Z,102825.38
2023-02-06T14:06:11.356Z,102830.45
2023-02-06T14:09:09.308Z,102832.53
2023-02-06T14:12:08.647Z,102833.18
2023-02-06T14:15:15.451Z,102832.63
2023-02-06T14:18:22.206Z,102834.95
2023-02-06T14:20:53.397Z,102832.45
2023-02-06T14:23:46.929Z,102833.71
2023-02-06T14:26:47.179Z,102845.02
2023-02-06T14:29:37.315Z,102849.23
2023-02-06T14:32:11.769Z,102853.91
2023-02-06T14:34:49.845Z,102868.38
2023-02-06T14:37:59.723Z,102869.18
2023-02-06T14:40:34.209Z,102870.09
2023-02-06T14:43:06.540Z,102881.91
2023-02-06T14:45:42.020Z,102885.57
2023-02-06T14:48:25.300Z,102882.35
2023-02-06T14:50:57.659Z,102888.38
2023-02-06T14:53:33.522Z,102894.36
2023-02-06T14:56:28.100Z,102896.82
2023-02-06T14:58:57.406Z,102900.98
2023-02-06T15:01:29.346Z,102900.64
2023-02-06T15:04:13.327Z,102908.30
2023-02-06T15:06:57.014Z,102910.91
2023-02-06T15:09:30.248Z,102914.65
2023-02-06T15:12:04.045Z,102911.23
2023-02-06T15:14:35.220Z,102917.04
2023-02-06T15:17:03.790Z,102917.96
2023-02-06T15:19:35.870Z,102919.49
2023-02-06T15:22:11.162Z,102920.58
2023-02-06T15:25:06.540Z,102926.56
2023-02-06T15:27:39.014Z,102929.78
2023-02-06T15:30:26.644Z,102927.23
2023-02-06T15:32:56.357Z,102930.80
2023-02-06T15:35:30.749Z,102932.81
2023-02-06T15:38:11.862Z,102932.73
2023-02-06T15:40:46.680Z,102930.40
2023-02-06T15:43:18.196Z,102930.27
2023-02-06T15:45:49.177Z,102935.32
2023-02-06T15:48:28.275Z,102938.80
2023-02-06T15:50:58.658Z,102946.20
2023-02-06T15:53:36.705Z,102948.23
2023-02-06T15:56:09.802Z,102953.94
2023-02-06T15:58:38.205Z,102956.51
2023-02-06T16:01:18.837Z,102960.25
2023-02-06T16:03:52.362Z,102963.77
2023-02-06T16:06:20.839Z,102970.02
2023-02-06T16:08:51.948Z,102970.16
2023-02-06T16:11:53.272Z,102966.45
2023-02-06T16:14:33.132Z,102966.55
2023-02-06T16:17:23.528Z,102968.86
2023-02-06T16:20:37.380Z,102975.22
2023-02-06T16:23:24.221Z,102977.91
2023-02-06T16:26:20.548Z,102973.20
2023-02-06T16:28:55.073Z,102975.26
2023-02-06T16:31:26.206Z,102977.52
2023-02-06T16:34:03.331Z,102979.02
2023-02-06T16:36:33.832Z,102979.91
2023-02-06T16:39:04.550Z,102987.86
2023-02-06T16:41:36.318Z,102989.45
2023-02-06T16:44:12.810Z,102995.10
2023-02-06T16:46:42.079Z,102999.99
2023-02-06T16:49:15.668Z,102998.23
2023-02-06T16:51:46.186Z,102995.00
2023-02-06T16:54:25.600Z,102992.45
2023-02-06T16:56:56.275Z,102996.65
2023-02-06T16:59:24.729Z,102998.52
2023-02-06T17:01:53.220Z,102996.19
2023-02-06T17:04:21.723Z,102995.40
2023-02-06T17:06:50.682Z,103001.21
2023-02-06T17:09:19.622Z,103010.03
2023-02-06T17:11:48.307Z,103014.81
2023-02-06T17:14:16.752Z,103016.87
2023-02-06T17:16:46.146Z,103012.61
2023-02-06T17:19:15.757Z,103010.96
2023-02-06T17:21:44.289Z,103015.22
2023-02-06T17:24:12.745Z,103020.48
2023-02-06T17:26:41.251Z,103020.39
2023-02-06T17:29:13.708Z,103009.50
2023-02-06T17:31:42.111Z,103003.61
2023-02-06T17:34:10.675Z,103003.30
2023-02-06T17:36:41.114Z,103000.81
2023-02-06T17:39:13.052Z,103000.02
2023-02-06T17:41:41.522Z,103005.08
2023-02-06T17:44:11.861Z,103007.45
2023-02-06T17:46:40.397Z,103006.40
2023-02-06T17:49:09.053Z,103001.98
2023-02-06T17:51:40.225Z,102994.61
2023-02-06T17:54:09.707Z,102994.34
2023-02-06T17:56:38.746Z,102999.48
2023-02-06T17:59:07.223Z,103000.05
2023-02-06T18:01:35.774Z,102999.21
2023-02-06T18:04:04.780Z,103006.86
2023-02-06T18:06:36.554Z,103003.29
2023-02-06T18:09:05.561Z,103012.23
2023-02-06T18:11:36.036Z,103022.73
2023-02-06T18:14:04.772Z,103024.82
2023-02-06T18:16:34.113Z,103032.44
2023-02-06T18:19:03.335Z,103038.05
2023-02-06T18:21:31.943Z,103046.27
2023-02-06T18:24:00.431Z,103051.75
2023-02-06T18:26:29.051Z,103047.48
2023-02-06T18:28:57.602Z,103047.81
2023-02-06T18:31:33.483Z,103050.84
2023-02-06T18:34:08.199Z,103055.85
2023-02-06T18:36:38.214Z,103059.00
2023-02-06T18:39:06.968Z,103057.02
2023-02-06T18:41:53.913Z,103055.29
2023-02-06T18:44:22.562Z,103055.06
2023-02-06T18:46:51.388Z,103056.81
2023-02-06T18:49:19.945Z,103057.80
2023-02-06T18:51:48.544Z,103053.16
2023-02-06T18:54:17.722Z,103056.83
2023-02-06T18:56:46.740Z,103058.58
2023-02-06T18:59:17.045Z,103058.33
2023-02-06T19:01:45.650Z,103062.46
2023-02-06T19:04:14.178Z,103069.76
2023-02-06T19:06:44.774Z,103073.14
2023-02-06T19:09:21.282Z,103072.59
2023-02-06T19:11:49.793Z,103071.11
2023-02-06T19:14:22.702Z,103069.24
2023-02-06T19:16:53.020Z,103073.58
2023-02-06T19:19:21.898Z,103071.44
2023-02-06T19:21:50.470Z,103062.77
2023-02-06T19:24:18.982Z,103066.99
2023-02-06T19:26:47.498Z,103069.13
2023-02-06T19:29:34.433Z,103063.80
2023-02-06T19:32:05.883Z,103052.71
2023-02-06T19:34:37.327Z,103041.14
2023-02-06T19:37:08.853Z,103029.92
2023-02-06T19:39:40.454Z,103030.93
2023-02-06T19:42:10.772Z,103021.39
2023-02-06T19:44:39.269Z,103027.08
2023-02-06T19:47:07.659Z,103036.39
2023-02-06T19:49:36.295Z,103040.73
2023-02-06T19:52:04.842Z,103047.48
2023-02-06T19:54:33.444Z,103053.14
2023-02-06T19:57:01.899Z,103065.23
2023-02-06T19:59:30.747Z,103073.05
2023-02-06T20:02:01.863Z,103076.04
2023-02-06T20:04:34.432Z,103072.02
2023-02-06T20:07:03.421Z,103079.98
2023-02-06T20:09:32.282Z,103075.33
2023-02-06T20:12:00.805Z,103074.36
2023-02-06T20:14:29.504Z,103073.52
2023-02-06T20:16:58.099Z,103073.21
2023-02-06T20:19:28.969Z,103074.02
2023-02-06T20:22:00.293Z,103074.11
2023-02-06T20:24:31.465Z,103076.27
2023-02-06T20:27:02.589Z,103079.77
2023-02-06T20:29:34.673Z,103086.42
2023-02-06T20:32:05.271Z,103085.95
2023-02-06T20:34:35.022Z,103086.65
2023-02-06T20:37:04.818Z,103088.86
2023-02-06T20:39:33.622Z,103085.67
2023-02-06T20:42:02.308Z,103078.94
2023-02-06T20:44:31.668Z,103085.95
2023-02-06T20:47:01.278Z,103089.02
2023-02-06T20:49:31.433Z,103086.00
2023-02-06T20:51:59.981Z,103085.91
2023-02-06T20:54:28.555Z,103091.98
2023-02-06T20:56:57.287Z,103095.34
2023-02-06T20:59:25.818Z,103096.64
2023-02-06T21:01:54.745Z,103095.24
2023-02-06T21:04:23.202Z,103091.77
2023-02-06T21:06:51.721Z,103084.38
2023-02-06T21:09:20.194Z,103068.69
2023-02-06T21:11:50.367Z,103060.63
2023-02-06T21:14:19.921Z,103062.80
2023-02-06T21:16:49.244Z,103061.63
2023-02-06T21:19:20.186Z,103058.27
2023-02-06T21:21:49.602Z,103055.63
2023-02-06T21:24:18.920Z,103052.16
2023-02-06T21:26:48.356Z,103052.27
2023-02-06T21:29:17.165Z,103066.18
2023-02-06T21:31:46.461Z,103075.33
2023-02-06T21:34:25.816Z,103076.67
2023-02-06T21:36:54.944Z,103076.93
2023-02-06T21:39:27.293Z,103076.70
2023-02-06T21:41:55.836Z,103081.27
2023-02-06T21:44:26.596Z,103091.13
2023-02-06T21:46:56.340Z,103095.98
2023-02-06T21:49:24.983Z,103095.14
2023-02-06T21:51:53.611Z,103097.98
2023-02-06T21:54:22.673Z,103089.90
2023-02-06T21:56:51.828Z,103089.02
2023-02-06T21:59:20.480Z,103087.64
2023-02-06T22:01:49.035Z,103093.88
2023-02-06T22:04:17.599Z,103096.73
2023-02-06T22:06:48.122Z,103100.15
2023-02-06T22:09:19.063Z,103090.34
2023-02-06T22:11:47.827Z,103094.61
2023-02-06T22:14:18.264Z,103097.95
2023-02-06T22:16:47.262Z,103099.27
2023-02-06T22:19:16.744Z,103107.09
2023-02-06T22:21:46.127Z,103107.89
2023-02-06T22:24:14.998Z,103116.06
2023-02-06T22:26:44.064Z,103117.81
2023-02-06T22:29:16.144Z,103115.39
2023-02-06T22:31:45.545Z,103117.77
2023-02-06T22:34:20.109Z,103119.20
2023-02-06T22:36:51.412Z,103124.63
2023-02-06T22:39:20.270Z,103128.50
2023-02-06T22:41:49.528Z,103130.29
2023-02-06T22:44:20.071Z,103139.38
2023-02-06T22:46:52.089Z,103145.67
2023-02-06T22:49:22.322Z,103150.87
2023-02-06T22:51:51.012Z,103154.17
2023-02-06T22:54:19.763Z,103153.17
2023-02-06T22:56:48.497Z,103158.17
2023-02-06T22:59:23.378Z,103153.84
2023-02-06T23:01:57.440Z,103146.09
2023-02-06T23:04:29.615Z,103149.17
2023-02-06T23:06:58.331Z,103149.38
2023-02-06T23:09:33.951Z,103145.86
2023-02-06T23:12:03.906Z,103137.06
2023-02-06T23:14:33.811Z,103131.41
2023-02-06T23:17:03.582Z,103129.23
2023-02-06T23:19:32.643Z,103124.79
2023-02-06T23:22:01.115Z,103124.60
2023-02-06T23:24:29.612Z,103129.14
2023-02-06T23:26:58.182Z,103130.86
2023-02-06T23:29:26.737Z,103128.85
2023-02-06T23:31:56.123Z,103127.63
2023-02-06T23:34:24.681Z,103131.01
2023-02-06T23:36:53.508Z,103130.88
2023-02-06T23:39:22.417Z,103133.23
2023-02-06T23:41:51.098Z,103139.88
2023-02-06T23:44:19.898Z,103138.55
2023-02-06T23:46:48.445Z,103137.77
2023-02-06T23:49:17.656Z,103138.98
2023-02-06T23:51:47.300Z,103135.13
2023-02-06T23:54:15.839Z,103136.13
2023-02-06T23:56:44.542Z,103145.35
2023-02-06T23:59:15.722Z,103149.88
